createdAt,value
2022-10-21T00:01:00.726Z,98563.00
2022-10-21T00:03:38.016Z,98561.00
2022-10-21T00:06:07.238Z,98562.51
2022-10-21T00:08:36.065Z,98562.06
2022-10-21T00:11:06.657Z,98562.88
2022-10-21T00:13:36.828Z,98561.79
2022-10-21T00:16:08.916Z,98564.54
2022-10-21T00:18:39.285Z,98568.41
2022-10-21T00:21:14.579Z,98570.13
2022-10-21T00:23:44.071Z,98571.38
2022-10-21T00:26:14.153Z,98566.60
2022-10-21T00:28:43.229Z,98563.04
2022-10-21T00:31:13.882Z,98561.01
2022-10-21T00:33:42.638Z,98563.05
2022-10-21T00:36:15.480Z,98559.41
2022-10-21T00:38:46.082Z,98559.63
2022-10-21T00:41:15.843Z,98560.75
2022-10-21T00:43:59.858Z,98557.42
2022-10-21T00:46:37.493Z,98556.70
2022-10-21T00:49:12.642Z,98557.37
2022-10-21T00:51:42.248Z,98554.67
2022-10-21T00:54:10.907Z,98554.70
2022-10-21T00:56:44.653Z,98558.38
2022-10-21T00:59:14.281Z,98557.98
2022-10-21T01:01:42.706Z,98558.58
2022-10-21T01:04:10.853Z,98554.53
2022-10-21T01:06:40.248Z,98554.42
2022-10-21T01:09:08.864Z,98553.84
2022-10-21T01:11:44.443Z,98556.14
2022-10-21T01:14:13.520Z,98556.71
2022-10-21T01:16:54.852Z,98555.55
2022-10-21T01:19:48.355Z,98553.23
2022-10-21T01:22:54.122Z,98551.70
2022-10-21T01:25:36.779Z,98546.68
2022-10-21T01:28:28.772Z,98549.02
2022-10-21T01:31:13.962Z,98550.67
2022-10-21T01:33:46.995Z,98549.77
2022-10-21T01:36:31.126Z,98549.58
2022-10-21T01:39:07.474Z,98549.70
2022-10-21T01:41:48.816Z,98554.34
2022-10-21T01:44:29.142Z,98553.49
2022-10-21T01:47:01.342Z,98554.75
2022-10-21T01:49:35.909Z,98552.64
2022-10-21T01:52:05.634Z,98554.27
2022-10-21T01:55:06.869Z,98551.83
2022-10-21T01:57:41.410Z,98548.44
2022-10-21T02:00:10.574Z,98545.91
2022-10-21T02:02:44.362Z,98545.65
2022-10-21T02:05:22.347Z,98541.85
2022-10-21T02:07:50.867Z,98540.67
2022-10-21T02:10:20.390Z,98540.67
2022-10-21T02:12:52.591Z,98534.69
2022-10-21T02:15:23.770Z,98534.25
2022-10-21T02:18:00.052Z,98532.67
2022-10-21T02:20:33.554Z,98529.48
2022-10-21T02:23:03.463Z,98531.84
2022-10-21T02:25:34.824Z,98535.33
2022-10-21T02:28:04.442Z,98533.00
2022-10-21T02:30:43.675Z,98532.98
2022-10-21T02:33:24.346Z,98534.09
2022-10-21T02:36:17.357Z,98533.89
2022-10-21T02:38:52.003Z,98532.27
2022-10-21T02:41:25.719Z,98532.90
2022-10-21T02:44:00.955Z,98536.61
2022-10-21T02:46:38.038Z,98539.14
2022-10-21T02:49:06.479Z,98540.98
2022-10-21T02:51:35.808Z,98540.19
2022-10-21T02:54:04.080Z,98540.41
2022-10-21T02:56:32.194Z,98540.80
2022-10-21T02:59:00.127Z,98542.73
2022-10-21T03:01:28.513Z,98544.32
2022-10-21T03:03:56.967Z,98547.10
2022-10-21T03:06:25.175Z,98541.30
2022-10-21T03:08:53.370Z,98540.73
2022-10-21T03:11:21.803Z,98535.15
2022-10-21T03:13:50.152Z,98530.66
2022-10-21T03:18:46.723Z,98535.33
2022-10-21T03:21:15.023Z,98536.27
2022-10-21T03:23:43.462Z,98535.09
2022-10-21T03:26:11.688Z,98532.34
2022-10-21T03:28:39.832Z,98534.98
2022-10-21T03:31:08.024Z,98533.15
2022-10-21T03:33:36.108Z,98531.49
2022-10-21T03:36:05.362Z,98530.16
2022-10-21T03:38:33.417Z,98527.40
2022-10-21T03:41:02.386Z,98526.80
2022-10-21T03:43:30.894Z,98526.89
2022-10-21T03:45:58.904Z,98526.95
2022-10-21T03:48:27.461Z,98522.02
2022-10-21T03:50:57.218Z,98518.62
2022-10-21T03:53:42.230Z,98516.70
2022-10-21T03:56:12.370Z,98513.02
2022-10-21T03:58:41.693Z,98515.37
2022-10-21T04:01:14.667Z,98518.48
2022-10-21T04:03:43.136Z,98521.00
2022-10-21T04:06:11.294Z,98521.12
2022-10-21T04:08:40.010Z,98516.18
2022-10-21T04:11:08.204Z,98509.27
2022-10-21T04:13:36.691Z,98508.48
2022-10-21T04:16:07.865Z,98505.30
2022-10-21T04:18:36.229Z,98509.42
2022-10-21T04:21:05.178Z,98510.90
2022-10-21T04:23:33.383Z,98508.47
2022-10-21T04:26:02.952Z,98505.02
2022-10-21T04:28:32.998Z,98503.44
2022-10-21T04:31:01.279Z,98502.98
2022-10-21T04:33:29.437Z,98502.66
2022-10-21T04:35:59.259Z,98502.30
2022-10-21T04:38:28.259Z,98499.73
2022-10-21T04:40:58.781Z,98498.27
2022-10-21T04:43:29.016Z,98501.80
2022-10-21T04:45:57.219Z,98504.75
2022-10-21T04:48:25.741Z,98505.92
2022-10-21T04:50:55.230Z,98499.60
2022-10-21T04:53:23.657Z,98497.54
2022-10-21T04:55:53.526Z,98493.77
2022-10-21T04:58:22.610Z,98491.20
2022-10-21T05:00:51.783Z,98493.05
2022-10-21T05:03:20.653Z,98493.08
2022-10-21T05:05:52.992Z,98497.42
2022-10-21T05:08:21.458Z,98499.71
2022-10-21T05:10:50.365Z,98502.05
2022-10-21T05:13:18.674Z,98502.98
2022-10-21T05:15:46.908Z,98498.81
2022-10-21T05:18:15.010Z,98490.36
2022-10-21T05:20:43.189Z,98490.78
2022-10-21T05:23:11.297Z,98490.52
2022-10-21T05:25:39.217Z,98491.39
2022-10-21T05:28:07.274Z,98496.80
2022-10-21T05:30:35.662Z,98497.38
2022-10-21T05:33:04.327Z,98499.91
2022-10-21T05:35:32.755Z,98494.55
2022-10-21T05:38:01.357Z,98493.09
2022-10-21T05:40:29.691Z,98493.11
2022-10-21T05:42:57.912Z,98499.41
2022-10-21T05:45:27.148Z,98505.70
2022-10-21T05:47:55.361Z,98502.17
2022-10-21T05:50:23.550Z,98504.08
2022-10-21T05:52:52.504Z,98502.54
2022-10-21T05:55:22.889Z,98497.61
2022-10-21T06:00:20.401Z,98497.65
2022-10-21T06:02:48.793Z,98490.81
2022-10-21T06:05:17.267Z,98495.19
2022-10-21T06:07:45.669Z,98494.72
2022-10-21T06:10:14.439Z,98487.36
2022-10-21T06:12:44.013Z,98484.65
2022-10-21T06:15:12.575Z,98486.95
2022-10-21T06:17:41.140Z,98488.09
2022-10-21T06:20:10.346Z,98485.66
2022-10-21T06:22:38.982Z,98491.64
2022-10-21T06:25:07.476Z,98492.89
2022-10-21T06:27:36.204Z,98494.16
2022-10-21T06:30:06.681Z,98496.02
2022-10-21T06:32:35.837Z,98498.89
2022-10-21T06:35:04.731Z,98499.69
2022-10-21T06:37:33.501Z,98497.41
2022-10-21T06:40:01.889Z,98492.64
2022-10-21T06:42:30.519Z,98492.61
2022-10-21T06:45:00.291Z,98485.36
2022-10-21T06:47:28.951Z,98483.52
2022-10-21T06:49:57.705Z,98479.85
2022-10-21T06:54:54.419Z,98484.16
2022-10-21T06:57:23.048Z,98484.13
2022-10-21T06:59:51.951Z,98485.31
2022-10-21T07:02:21.499Z,98486.52
2022-10-21T07:04:52.731Z,98490.92
2022-10-21T07:07:21.274Z,98492.73
2022-10-21T07:09:49.582Z,98494.30
2022-10-21T07:12:18.190Z,98492.36
2022-10-21T07:14:47.532Z,98487.15
2022-10-21T07:17:17.169Z,98481.07
2022-10-21T07:19:45.790Z,98477.77
2022-10-21T07:22:15.440Z,98472.11
2022-10-21T07:24:44.515Z,98469.87
2022-10-21T07:27:13.202Z,98467.41
2022-10-21T07:29:41.758Z,98467.62
2022-10-21T07:32:11.117Z,98468.24
2022-10-21T07:34:40.263Z,98470.02
2022-10-21T07:37:08.878Z,98467.92
2022-10-21T07:39:37.256Z,98469.96
2022-10-21T07:42:05.978Z,98466.48
2022-10-21T07:44:35.085Z,98468.84
2022-10-21T07:47:04.549Z,98469.17
2022-10-21T07:49:33.510Z,98463.91
2022-10-21T07:52:02.464Z,98457.81
2022-10-21T07:54:30.762Z,98451.21
2022-10-21T07:56:59.143Z,98448.16
2022-10-21T07:59:27.549Z,98443.70
2022-10-21T08:01:56.041Z,98442.94
2022-10-21T08:04:30.089Z,98440.63
2022-10-21T08:06:59.628Z,98441.08
2022-10-21T08:09:28.773Z,98432.02
2022-10-21T08:11:58.231Z,98425.16
2022-10-21T08:14:26.826Z,98427.25
2022-10-21T08:16:55.676Z,98425.11
2022-10-21T08:19:30.035Z,98425.07
2022-10-21T08:21:59.695Z,98424.26
2022-10-21T08:24:28.519Z,98416.85
2022-10-21T08:26:57.018Z,98412.89
2022-10-21T08:29:27.388Z,98415.64
2022-10-21T08:31:56.450Z,98409.23
2022-10-21T08:34:24.742Z,98407.32
2022-10-21T08:36:56.608Z,98404.88
2022-10-21T08:39:25.681Z,98405.02
2022-10-21T08:41:56.914Z,98398.94
2022-10-21T08:44:37.858Z,98388.66
2022-10-21T08:47:20.875Z,98388.45
2022-10-21T08:50:17.213Z,98390.36
2022-10-21T08:52:49.973Z,98392.73
2022-10-21T08:55:24.398Z,98395.93
2022-10-21T08:57:57.149Z,98395.64
2022-10-21T09:00:33.056Z,98393.25
2022-10-21T09:03:25.961Z,98391.38
2022-10-21T09:06:18.274Z,98390.87
2022-10-21T09:08:57.448Z,98390.88
2022-10-21T09:11:42.216Z,98384.26
2022-10-21T09:14:33.280Z,98379.89
2022-10-21T09:17:14.048Z,98370.13
2022-10-21T09:19:45.296Z,98366.80
2022-10-21T09:22:34.324Z,98366.60
2022-10-21T09:25:37.187Z,98363.06
2022-10-21T09:28:16.724Z,98355.33
2022-10-21T09:30:45.996Z,98345.15
2022-10-21T09:33:37.272Z,98339.65
2022-10-21T09:36:23.559Z,98340.47
2022-10-21T09:39:03.832Z,98335.17
2022-10-21T09:41:59.208Z,98326.55
2022-10-21T09:44:30.325Z,98325.23
2022-10-21T09:46:59.062Z,98323.94
2022-10-21T09:50:06.425Z,98328.70
2022-10-21T09:52:26.472Z,98318.38
2022-10-21T09:54:57.527Z,98313.16
2022-10-21T09:57:47.945Z,98311.45
2022-10-21T10:00:16.907Z,98307.98
2022-10-21T10:02:46.906Z,98306.33
2022-10-21T10:05:49.237Z,98310.47
2022-10-21T10:08:28.759Z,98308.98
2022-10-21T10:11:11.751Z,98305.57
2022-10-21T10:13:42.762Z,98300.82
2022-10-21T10:16:19.756Z,98298.13
2022-10-21T10:18:51.596Z,98289.03
2022-10-21T10:21:22.697Z,98283.40
2022-10-21T10:23:54.382Z,98278.08
2022-10-21T10:26:29.187Z,98275.39
2022-10-21T10:29:27.328Z,98277.13
2022-10-21T10:32:00.659Z,98277.05
2022-10-21T10:34:49.649Z,98267.51
2022-10-21T10:37:24.725Z,98268.33
2022-10-21T10:39:57.448Z,98267.09
2022-10-21T10:42:33.554Z,98262.16
2022-10-21T10:45:15.085Z,98260.84
2022-10-21T10:47:49.860Z,98263.39
2022-10-21T10:50:44.464Z,98261.05
2022-10-21T10:53:38.678Z,98256.57
2022-10-21T10:56:29.203Z,98254.39
2022-10-21T10:59:24.386Z,98253.77
2022-10-21T11:02:26.625Z,98258.59
2022-10-21T11:05:01.024Z,98262.70
2022-10-21T11:07:40.282Z,98265.71
2022-10-21T11:10:35.403Z,98265.74
2022-10-21T11:13:15.030Z,98264.05
2022-10-21T11:15:51.537Z,98261.10
2022-10-21T11:18:59.826Z,98263.92
2022-10-21T11:21:40.897Z,98266.09
2022-10-21T11:24:28.822Z,98264.11
2022-10-21T11:27:18.213Z,98260.40
2022-10-21T11:30:07.120Z,98257.10
2022-10-21T11:32:50.223Z,98248.50
2022-10-21T11:35:56.731Z,98248.27
2022-10-21T11:38:51.608Z,98241.42
2022-10-21T11:41:46.513Z,98232.92
2022-10-21T11:44:34.986Z,98227.09
2022-10-21T11:47:06.367Z,98223.14
2022-10-21T11:50:22.785Z,98216.15
2022-10-21T11:53:17.203Z,98204.19
2022-10-21T11:56:00.302Z,98196.31
2022-10-21T11:59:04.830Z,98194.84
2022-10-21T12:01:42.630Z,98192.03
2022-10-21T12:04:27.596Z,98188.10
2022-10-21T12:07:08.940Z,98184.20
2022-10-21T12:09:49.448Z,98178.84
2022-10-21T12:12:42.942Z,98172.11
2022-10-21T12:15:19.215Z,98163.59
2022-10-21T12:17:49.988Z,98160.61
2022-10-21T12:20:24.169Z,98156.42
2022-10-21T12:23:03.898Z,98152.45
2022-10-21T12:25:43.455Z,98153.22
2022-10-21T12:28:42.728Z,98150.34
2022-10-21T12:31:22.072Z,98149.95
2022-10-21T12:33:51.486Z,98150.08
2022-10-21T12:36:22.690Z,98149.11
2022-10-21T12:38:58.543Z,98149.21
2022-10-21T12:41:38.996Z,98144.66
2022-10-21T12:44:18.126Z,98142.42
2022-10-21T12:46:52.877Z,98139.70
2022-10-21T12:49:26.461Z,98134.20
2022-10-21T12:51:57.481Z,98129.33
2022-10-21T12:54:30.724Z,98129.92
2022-10-21T12:57:06.853Z,98132.83
2022-10-21T12:59:39.001Z,98129.11
2022-10-21T13:02:10.289Z,98131.34
2022-10-21T13:04:38.481Z,98141.16
2022-10-21T13:07:16.724Z,98139.23
2022-10-21T13:09:51.709Z,98139.06
2022-10-21T13:12:24.015Z,98135.40
2022-10-21T13:15:02.193Z,98137.70
2022-10-21T13:17:33.557Z,98132.25
2022-10-21T13:20:19.813Z,98126.97
2022-10-21T13:23:01.952Z,98122.73
2022-10-21T13:25:36.368Z,98123.55
2022-10-21T13:28:07.716Z,98121.39
2022-10-21T13:30:39.061Z,98121.30
2022-10-21T13:33:15.769Z,98123.03
2022-10-21T13:35:47.667Z,98121.06
2022-10-21T13:38:21.821Z,98118.00
2022-10-21T13:41:25.602Z,98117.04
2022-10-21T13:43:58.280Z,98115.45
2022-10-21T13:46:31.909Z,98112.96
2022-10-21T13:49:01.005Z,98110.84
2022-10-21T13:51:33.960Z,98096.96
2022-10-21T13:54:15.164Z,98098.19
2022-10-21T13:56:44.149Z,98101.55
2022-10-21T13:59:35.085Z,98102.63
2022-10-21T14:02:05.334Z,98103.46
2022-10-21T14:04:39.755Z,98107.46
2022-10-21T14:07:19.616Z,98109.88
2022-10-21T14:09:52.294Z,98109.14
2022-10-21T14:12:42.084Z,98101.54
2022-10-21T14:15:22.170Z,98097.66
2022-10-21T14:17:58.474Z,98093.77
2022-10-21T14:20:36.827Z,98084.81
2022-10-21T14:23:08.820Z,98080.57
2022-10-21T14:25:37.624Z,98087.38
2022-10-21T14:28:06.053Z,98095.05
2022-10-21T14:30:37.461Z,98096.61
2022-10-21T14:33:08.798Z,98091.45
2022-10-21T14:35:37.401Z,98088.76
2022-10-21T14:38:25.783Z,98087.95
2022-10-21T14:41:01.255Z,98081.39
2022-10-21T14:43:38.122Z,98075.40
2022-10-21T14:46:10.588Z,98068.89
2022-10-21T14:48:55.244Z,98067.13
2022-10-21T14:51:23.773Z,98066.62
2022-10-21T14:54:02.266Z,98067.52
2022-10-21T14:56:34.283Z,98069.89
2022-10-21T14:59:39.538Z,98072.05
2022-10-21T15:02:21.148Z,98075.70
2022-10-21T15:04:55.198Z,98075.05
2022-10-21T15:07:37.408Z,98081.87
2022-10-21T15:10:06.264Z,98083.98
2022-10-21T15:12:43.535Z,98085.77
2022-10-21T15:15:40.478Z,98090.34
2022-10-21T15:18:20.257Z,98092.11
2022-10-21T15:20:57.150Z,98087.93
2022-10-21T15:23:34.698Z,98086.91
2022-10-21T15:26:19.771Z,98088.69
2022-10-21T15:28:48.731Z,98087.52
2022-10-21T15:31:24.315Z,98079.82
2022-10-21T15:33:54.692Z,98079.59
2022-10-21T15:36:24.739Z,98080.08
2022-10-21T15:38:55.059Z,98076.76
2022-10-21T15:41:29.649Z,98078.12
2022-10-21T15:44:01.781Z,98078.98
2022-10-21T15:46:34.423Z,98081.56
2022-10-21T15:49:15.842Z,98081.36
2022-10-21T15:51:44.570Z,98079.95
2022-10-21T15:54:13.642Z,98068.38
2022-10-21T15:56:43.960Z,98062.68
2022-10-21T15:59:33.834Z,98059.75
2022-10-21T16:02:02.705Z,98057.58
2022-10-21T16:04:31.147Z,98056.25
2022-10-21T16:06:59.431Z,98052.48
2022-10-21T16:09:29.739Z,98049.59
2022-10-21T16:12:00.787Z,98051.75
2022-10-21T16:14:31.078Z,98053.20
2022-10-21T16:17:00.418Z,98056.74
2022-10-21T16:19:29.537Z,98055.41
2022-10-21T16:21:57.573Z,98057.03
2022-10-21T16:24:27.047Z,98059.36
2022-10-21T16:26:55.155Z,98066.38
2022-10-21T16:29:25.486Z,98069.36
2022-10-21T16:31:54.269Z,98065.02
2022-10-21T16:34:22.383Z,98058.77
2022-10-21T16:36:51.308Z,98052.70
2022-10-21T16:39:22.566Z,98050.28
2022-10-21T16:41:51.889Z,98051.36
2022-10-21T16:44:20.752Z,98053.13
2022-10-21T16:46:55.167Z,98053.16
2022-10-21T16:49:26.960Z,98055.09
2022-10-21T16:51:55.338Z,98055.47
2022-10-21T16:54:24.124Z,98056.16
2022-10-21T16:56:55.116Z,98053.55
2022-10-21T16:59:23.967Z,98053.39
2022-10-21T17:01:52.413Z,98053.05
2022-10-21T17:04:20.902Z,98046.98
2022-10-21T17:06:49.205Z,98045.09
2022-10-21T17:09:17.401Z,98051.73
2022-10-21T17:11:46.694Z,98058.52
2022-10-21T17:14:18.801Z,98057.46
2022-10-21T17:16:47.478Z,98062.66
2022-10-21T17:19:16.115Z,98063.50
2022-10-21T17:21:44.756Z,98055.66
2022-10-21T17:24:18.234Z,98051.45
2022-10-21T17:26:46.480Z,98048.48
2022-10-21T17:29:14.504Z,98045.66
2022-10-21T17:31:43.864Z,98044.58
2022-10-21T17:34:26.984Z,98043.30
2022-10-21T17:36:55.518Z,98035.25
2022-10-21T17:39:24.393Z,98024.59
2022-10-21T17:41:53.416Z,98023.20
2022-10-21T17:44:21.525Z,98018.48
2022-10-21T17:46:54.479Z,98014.66
2022-10-21T17:49:24.278Z,98016.42
2022-10-21T17:51:53.462Z,98020.80
2022-10-21T17:54:26.004Z,98019.62
2022-10-21T17:56:57.611Z,98018.77
2022-10-21T17:59:26.831Z,98016.00
2022-10-21T18:01:55.044Z,98018.44
2022-10-21T18:04:23.353Z,98020.35
2022-10-21T18:06:51.745Z,98019.30
2022-10-21T18:09:20.434Z,98014.95
2022-10-21T18:11:48.992Z,98014.24
2022-10-21T18:14:17.193Z,98013.73
2022-10-21T18:16:45.939Z,98013.92
2022-10-21T18:19:14.953Z,98011.14
2022-10-21T18:21:43.232Z,98010.95
2022-10-21T18:24:12.730Z,98009.23
2022-10-21T18:26:41.523Z,98003.47
2022-10-21T18:29:10.488Z,97997.21
2022-10-21T18:31:39.464Z,97997.73
2022-10-21T18:34:09.603Z,97999.65
2022-10-21T18:36:38.704Z,98000.52
2022-10-21T18:39:07.219Z,98000.17
2022-10-21T18:41:36.880Z,97998.42
2022-10-21T18:44:10.911Z,97997.69
2022-10-21T18:46:41.872Z,97999.73
2022-10-21T18:49:15.529Z,97997.61
2022-10-21T18:51:43.912Z,97994.78
2022-10-21T18:54:12.104Z,97995.98
2022-10-21T18:56:41.275Z,98001.69
2022-10-21T18:59:10.135Z,98007.02
2022-10-21T19:01:39.287Z,98007.16
2022-10-21T19:04:08.411Z,98005.55
2022-10-21T19:06:38.238Z,98006.23
2022-10-21T19:09:08.886Z,98010.39
2022-10-21T19:11:37.600Z,98006.02
2022-10-21T19:14:09.725Z,98001.31
2022-10-21T19:16:41.508Z,98004.80
2022-10-21T19:19:10.022Z,98011.98
2022-10-21T19:21:38.705Z,98015.30
2022-10-21T19:24:07.411Z,98014.27
2022-10-21T19:26:37.974Z,98008.17
2022-10-21T19:29:08.309Z,98004.71
2022-10-21T19:31:38.592Z,98007.35
2022-10-21T19:34:08.163Z,98008.23
2022-10-21T19:36:36.734Z,98010.36
2022-10-21T19:39:05.287Z,98011.25
2022-10-21T19:41:33.514Z,98007.10
2022-10-21T19:44:02.559Z,98012.70
2022-10-21T19:46:33.019Z,98015.85
2022-10-21T19:49:02.827Z,98010.98
2022-10-21T19:51:31.469Z,98015.52
2022-10-21T19:54:00.050Z,98011.17
2022-10-21T19:56:31.965Z,98010.45
2022-10-21T19:59:05.331Z,98008.19
2022-10-21T20:01:34.372Z,98005.58
2022-10-21T20:04:03.581Z,98008.55
2022-10-21T20:06:35.234Z,98002.29
2022-10-21T20:09:09.772Z,97997.24
2022-10-21T20:11:39.171Z,97994.46
2022-10-21T20:14:08.074Z,97989.10
2022-10-21T20:16:39.272Z,97981.27
2022-10-21T20:19:08.875Z,97983.73
2022-10-21T20:21:38.762Z,97979.02
2022-10-21T20:24:07.671Z,97978.14
2022-10-21T20:26:35.695Z,97974.64
2022-10-21T20:29:04.122Z,97975.67
2022-10-21T20:31:32.169Z,97984.02
2022-10-21T20:34:00.341Z,97983.80
2022-10-21T20:36:33.101Z,97982.23
2022-10-21T20:39:03.073Z,97978.91
2022-10-21T20:41:34.965Z,97981.69
2022-10-21T20:44:06.195Z,97976.95
2022-10-21T20:46:37.582Z,97975.37
2022-10-21T20:49:07.394Z,97978.85
2022-10-21T20:51:37.239Z,97976.41
2022-10-21T20:54:14.546Z,97972.58
2022-10-21T20:56:43.640Z,97968.59
2022-10-21T20:59:17.124Z,97968.07
2022-10-21T21:01:47.384Z,97968.42
2022-10-21T21:04:17.629Z,97968.63
2022-10-21T21:06:48.466Z,97963.23
2022-10-21T21:12:09.038Z,97964.11
2022-10-21T21:14:37.321Z,97963.23
2022-10-21T21:17:06.129Z,97962.72
2022-10-21T21:19:34.485Z,97964.46
2022-10-21T21:22:05.762Z,97965.50
2022-10-21T21:24:34.136Z,97963.06
2022-10-21T21:27:02.474Z,97964.48
2022-10-21T21:29:31.233Z,97959.23
2022-10-21T21:31:59.364Z,97955.70
2022-10-21T21:34:27.491Z,97959.16
2022-10-21T21:36:55.696Z,97956.50
2022-10-21T21:39:23.701Z,97955.05
2022-10-21T21:41:51.696Z,97956.05
2022-10-21T21:44:19.971Z,97954.77
2022-10-21T21:46:48.265Z,97954.35
2022-10-21T21:49:16.447Z,97951.52
2022-10-21T21:51:44.975Z,97946.27
2022-10-21T21:54:14.285Z,97941.20
2022-10-21T21:56:42.515Z,97944.52
2022-10-21T21:59:10.996Z,97944.91
2022-10-21T22:01:39.111Z,97945.14
2022-10-21T22:04:08.037Z,97940.13
2022-10-21T22:06:38.058Z,97937.89
2022-10-21T22:09:10.329Z,97936.20
2022-10-21T22:11:39.510Z,97932.26
2022-10-21T22:14:07.903Z,97933.52
2022-10-21T22:16:37.083Z,97934.95
2022-10-21T22:19:06.819Z,97932.90
2022-10-21T22:21:35.430Z,97933.63
2022-10-21T22:24:03.983Z,97933.98
2022-10-21T22:26:35.387Z,97935.23
2022-10-21T22:29:03.410Z,97933.52
2022-10-21T22:31:32.269Z,97928.66
2022-10-21T22:34:01.498Z,97923.65
2022-10-21T22:36:30.133Z,97919.86
2022-10-21T22:39:00.750Z,97919.55
2022-10-21T22:41:28.853Z,97918.20
2022-10-21T22:43:57.553Z,97913.55
2022-10-21T22:46:41.201Z,97909.94
2022-10-21T22:49:09.776Z,97908.95
2022-10-21T22:51:37.846Z,97901.83
2022-10-21T22:54:15.139Z,97903.23
2022-10-21T22:56:52.480Z,97902.02
2022-10-21T22:59:20.773Z,97904.65
2022-10-21T23:01:48.994Z,97901.35
2022-10-21T23:04:17.202Z,97892.31
2022-10-21T23:06:45.238Z,97891.96
2022-10-21T23:09:13.378Z,97896.50
2022-10-21T23:11:41.851Z,97896.34
2022-10-21T23:14:09.856Z,97898.77
2022-10-21T23:16:38.201Z,97900.85
2022-10-21T23:19:07.811Z,97898.25
2022-10-21T23:21:36.595Z,97900.36
2022-10-21T23:24:05.944Z,97901.59
2022-10-21T23:26:35.911Z,97898.48
2022-10-21T23:29:04.498Z,97905.80
2022-10-21T23:31:33.120Z,97908.07
2022-10-21T23:34:01.387Z,97910.87
2022-10-21T23:36:29.958Z,97911.92
2022-10-21T23:38:58.400Z,97911.94
2022-10-21T23:41:27.246Z,97913.53
2022-10-21T23:43:56.103Z,97913.04
2022-10-21T23:46:24.403Z,97913.23
2022-10-21T23:48:52.847Z,97914.29
2022-10-21T23:51:21.176Z,97908.73
2022-10-21T23:53:49.384Z,97908.05
2022-10-21T23:56:17.550Z,97908.42
2022-10-21T23:58:45.844Z,97904.45
